Time;durP1;ratioP1;P1;durP2;ratioP2;P2;SDS_P1;SDS_P2;PMS_P1;PMS_P2;Temp;Humidity;BMP_temperature;BMP_pressure;BME280_temperature;BME280_humidity;BME280_pressure;Samples;Min_cycle;Max_cycle;Signal;HPM_P1;HPM_P2
2024/02/07 00:00:29;;;;;;;11.65;6.60;;;;;;;10.42;66.42;96819.34;4969390;28;20037;-77
2024/02/07 00:02:54;;;;;;;9.52;6.03;;;;;;;10.62;65.61;96816.06;4961308;28;20030;-77
2024/02/07 00:05:19;;;;;;;11.45;6.57;;;;;;;10.43;66.17;96813.09;4972834;28;20145;-77
2024/02/07 00:07:45;;;;;;;10.68;6.65;;;;;;;10.59;65.61;96793.16;4941209;28;20050;-77
2024/02/07 00:10:11;;;;;;;10.05;6.45;;;;;;;10.50;66.34;96810.25;4973624;28;20410;-78
2024/02/07 00:12:36;;;;;;;9.95;6.45;;;;;;;10.65;65.77;96799.16;4956589;28;20451;-78
2024/02/07 00:15:02;;;;;;;12.40;6.43;;;;;;;10.52;65.61;96810.81;4971799;28;20113;-78
2024/02/07 00:17:31;;;;;;;11.45;6.70;;;;;;;10.88;64.99;96790.13;4944716;28;20142;-78
2024/02/07 00:19:57;;;;;;;10.88;6.05;;;;;;;10.95;64.60;96803.72;4966662;28;20045;-78
2024/02/07 00:22:22;;;;;;;8.93;6.25;;;;;;;10.46;66.36;96791.00;4966806;28;20125;-77
2024/02/07 00:24:47;;;;;;;9.45;6.50;;;;;;;10.35;66.53;96790.16;4958990;28;20542;-78
2024/02/07 00:27:13;;;;;;;11.02;6.10;;;;;;;10.47;66.54;96793.34;4970677;28;20042;-78
2024/02/07 00:29:38;;;;;;;9.90;6.32;;;;;;;10.77;65.71;96791.91;4960144;28;20063;-78
2024/02/07 00:32:04;;;;;;;10.18;6.10;;;;;;;10.83;65.37;96790.09;4967962;28;20486;-78
2024/02/07 00:34:29;;;;;;;10.32;6.78;;;;;;;10.78;64.95;96782.28;4966914;28;20431;-78
2024/02/07 00:36:54;;;;;;;14.05;6.35;;;;;;;10.57;65.94;96776.19;4959130;28;20039;-78
2024/02/07 00:39:20;;;;;;;13.95;7.13;;;;;;;10.56;66.33;96767.63;4953159;28;20576;-79
2024/02/07 00:41:45;;;;;;;13.02;6.63;;;;;;;10.70;65.19;96772.38;4937302;28;20125;-78
2024/02/07 00:44:10;;;;;;;14.63;7.70;;;;;;;10.70;65.26;96748.94;4947670;28;20031;-77
2024/02/07 00:46:37;;;;;;;12.18;6.57;;;;;;;10.52;65.97;96750.94;4971492;28;21121;-77
2024/02/07 00:49:03;;;;;;;10.50;7.18;;;;;;;10.60;65.21;96745.25;4954038;28;20035;-81
2024/02/07 00:51:30;;;;;;;10.45;6.60;;;;;;;10.38;66.69;96716.78;4961726;28;20042;-81
2024/02/07 00:53:55;;;;;;;10.43;7.18;;;;;;;10.70;65.68;96741.13;4948853;28;20046;-79
2024/02/07 00:56:21;;;;;;;12.77;7.80;;;;;;;10.42;67.23;96717.84;4983238;28;20738;-79
2024/02/07 00:58:46;;;;;;;11.93;7.38;;;;;;;10.36;67.52;96741.50;4953561;28;20065;-80
2024/02/07 01:01:12;;;;;;;11.38;7.05;;;;;;;10.28;67.58;96727.91;4954221;28;20033;-80
2024/02/07 01:03:38;;;;;;;13.32;6.93;;;;;;;10.38;66.98;96721.97;4979286;28;20319;-79
2024/02/07 01:06:04;;;;;;;11.35;6.80;;;;;;;10.14;67.81;96716.38;4971801;28;20426;-81
2024/02/07 01:08:29;;;;;;;12.50;7.25;;;;;;;10.24;67.68;96719.03;4972626;28;20042;-81
2024/02/07 01:10:55;;;;;;;11.95;7.32;;;;;;;10.49;67.27;96725.44;4954386;28;20105;-82
2024/02/07 01:13:20;;;;;;;10.23;6.65;;;;;;;10.70;65.77;96726.28;4966566;28;20065;-80
2024/02/07 01:15:46;;;;;;;15.13;7.25;;;;;;;10.67;66.21;96724.19;4943393;28;20041;-82
2024/02/07 01:18:11;;;;;;;11.68;7.47;;;;;;;10.70;65.58;96720.28;4962418;28;20034;-81
2024/02/07 01:20:36;;;;;;;11.88;7.10;;;;;;;10.69;65.89;96727.31;4972633;28;20041;-81
2024/02/07 01:23:02;;;;;;;12.20;7.38;;;;;;;10.48;66.72;96718.66;4964780;28;20069;-81
2024/02/07 01:25:27;;;;;;;12.25;7.30;;;;;;;10.48;66.45;96705.63;4960325;28;20117;-82
2024/02/07 01:27:55;;;;;;;12.15;7.65;;;;;;;10.42;66.83;96709.25;4973282;28;20402;-81
2024/02/07 01:30:21;;;;;;;12.32;6.40;;;;;;;10.56;66.88;96706.97;4972071;28;20395;-82
2024/02/07 01:32:46;;;;;;;12.00;6.78;;;;;;;10.63;66.83;96718.69;4963729;28;20046;-81
2024/02/07 01:35:15;;;;;;;11.77;6.95;;;;;;;10.64;66.40;96699.44;4965840;28;20043;-81
2024/02/07 01:37:40;;;;;;;13.98;6.80;;;;;;;10.27;67.75;96708.13;4971452;28;20046;-81
2024/02/07 01:40:09;;;;;;;11.13;6.82;;;;;;;10.66;66.29;96704.41;4955194;28;20508;-78
2024/02/07 01:42:35;;;;;;;13.68;6.97;;;;;;;10.71;65.99;96701.00;5022651;28;20031;-77
2024/02/07 01:45:21;;;;;;;10.75;6.63;;;;;;;10.63;66.38;96716.09;4966614;28;20126;-78
2024/02/07 01:47:50;;;;;;;9.52;6.75;;;;;;;10.22;68.31;96696.91;4955956;28;20043;-76
2024/02/07 01:50:15;;;;;;;11.18;6.45;;;;;;;10.45;66.69;96701.72;4962852;28;20079;-76
2024/02/07 01:52:41;;;;;;;12.95;6.72;;;;;;;10.52;66.95;96696.28;4959454;28;20035;-78
2024/02/07 01:55:07;;;;;;;10.50;6.32;;;;;;;10.78;65.47;96707.56;4953309;28;20410;-78
2024/02/07 01:57:33;;;;;;;13.35;7.18;;;;;;;10.42;66.95;96683.25;4956504;28;20099;-78
2024/02/07 01:59:59;;;;;;;15.48;6.57;;;;;;;10.50;67.17;96674.91;4957678;28;20513;-80
2024/02/07 02:02:25;;;;;;;13.02;7.10;;;;;;;10.28;67.67;96683.66;4933421;28;20082;-83
2024/02/07 02:04:51;;;;;;;11.77;7.13;;;;;;;10.41;67.53;96674.63;4973659;28;20123;-82
2024/02/07 02:07:17;;;;;;;9.88;6.00;;;;;;;10.74;65.61;96680.44;4958521;28;20159;-81
2024/02/07 02:09:43;;;;;;;11.73;6.28;;;;;;;10.75;65.51;96668.22;4963402;28;20068;-80
2024/02/07 02:12:09;;;;;;;11.85;6.38;;;;;;;10.74;66.19;96662.22;4960496;28;20474;-81
2024/02/07 02:14:34;;;;;;;10.20;6.45;;;;;;;10.44;67.14;96674.13;4969424;28;20026;-81
2024/02/07 02:17:00;;;;;;;11.88;6.47;;;;;;;10.83;65.74;96671.09;4968815;28;20446;-81
2024/02/07 02:19:25;;;;;;;10.35;6.50;;;;;;;10.95;65.17;96662.25;4968035;28;20042;-83
2024/02/07 02:22:09;;;;;;;13.85;6.13;;;;;;;11.04;64.74;96673.75;4962025;28;20066;-83
2024/02/07 02:25:00;;;;;;;9.95;6.28;;;;;;;10.86;65.33;96672.41;4972862;28;20099;-82
2024/02/07 02:27:38;;;;;;;10.20;6.55;;;;;;;11.08;64.72;96660.97;4951796;28;20034;-81
2024/02/07 02:30:12;;;;;;;10.27;6.28;;;;;;;10.77;65.84;96658.34;4977245;28;20049;-78
2024/02/07 02:32:42;;;;;;;13.13;7.22;;;;;;;10.71;66.63;96646.34;4971053;28;20039;-77
2024/02/07 02:35:08;;;;;;;11.98;6.72;;;;;;;10.89;65.46;96650.28;4959724;28;20494;-77
2024/02/07 02:37:35;;;;;;;15.63;7.20;;;;;;;10.62;66.65;96640.84;4965040;28;20122;-76
2024/02/07 02:40:05;;;;;;;9.25;6.18;;;;;;;10.93;65.44;96643.50;4962424;28;20472;-78
2024/02/07 02:42:32;;;;;;;11.13;6.15;;;;;;;11.03;65.16;96639.06;4969368;28;20035;-78
2024/02/07 02:44:57;;;;;;;10.77;6.95;;;;;;;10.50;67.25;96641.06;4957253;28;20031;-78
2024/02/07 02:47:23;;;;;;;13.65;6.75;;;;;;;10.66;67.07;96626.28;4963364;28;20418;-77
2024/02/07 02:49:48;;;;;;;10.48;6.68;;;;;;;10.98;65.61;96630.47;4960500;28;20121;-82
2024/02/07 02:52:14;;;;;;;8.82;5.93;;;;;;;10.75;66.26;96634.38;4956298;28;20030;-83
2024/02/07 02:54:39;;;;;;;12.35;6.95;;;;;;;10.38;67.48;96624.91;4969571;28;20402;-80
2024/02/07 02:57:07;;;;;;;12.40;7.20;;;;;;;10.47;67.38;96615.59;4952047;28;20034;-82
2024/02/07 02:59:35;;;;;;;11.13;6.32;;;;;;;10.85;66.10;96610.94;4952262;28;20035;-81
2024/02/07 03:02:08;;;;;;;10.70;6.95;;;;;;;10.84;65.67;96614.59;4962730;28;20087;-80
2024/02/07 03:04:44;;;;;;;13.52;7.13;;;;;;;11.00;65.00;96616.16;4954330;28;20026;-81
2024/02/07 03:10:08;;;;;;;13.75;7.40;;;;;;;11.12;65.15;96610.69;4957302;28;20100;-78
2024/02/07 03:12:33;;;;;;;13.80;6.82;;;;;;;10.90;66.32;96608.34;4953883;28;20433;-78
2024/02/07 03:14:59;;;;;;;12.88;7.00;;;;;;;10.92;66.24;96606.25;4962067;28;20375;-78
2024/02/07 03:17:24;;;;;;;10.68;7.60;;;;;;;10.94;66.26;96603.41;4940452;28;20531;-77
2024/02/07 03:19:50;;;;;;;12.43;7.68;;;;;;;10.59;66.89;96603.13;4942979;28;20454;-78
2024/02/07 03:22:15;;;;;;;14.02;7.28;;;;;;;10.84;65.92;96591.16;4967417;28;20483;-78
2024/02/07 03:24:41;;;;;;;12.68;7.10;;;;;;;10.70;66.86;96587.50;4968558;28;20035;-76
2024/02/07 03:27:07;;;;;;;11.70;7.45;;;;;;;10.71;66.88;96587.25;4979643;28;20040;-78
2024/02/07 03:29:33;;;;;;;14.00;6.97;;;;;;;10.92;65.35;96598.44;4957690;28;20034;-78
2024/02/07 03:31:59;;;;;;;12.95;7.78;;;;;;;10.83;66.15;96576.56;4950049;28;20100;-77
2024/02/07 03:34:24;;;;;;;11.27;7.50;;;;;;;11.06;65.43;96598.72;4973360;28;20487;-77
2024/02/07 03:36:50;;;;;;;15.27;7.68;;;;;;;10.71;66.70;96581.25;4948263;28;20035;-77
2024/02/07 03:39:15;;;;;;;13.85;7.32;;;;;;;10.84;65.97;96578.13;4968996;28;20046;-78
2024/02/07 03:41:41;;;;;;;11.63;6.72;;;;;;;10.98;66.00;96575.78;4970942;28;20040;-78
2024/02/07 03:44:12;;;;;;;11.38;7.00;;;;;;;11.17;65.17;96570.81;4942069;28;20142;-78
2024/02/07 03:46:40;;;;;;;13.40;7.03;;;;;;;11.09;65.96;96564.31;4972321;28;20041;-78
2024/02/07 03:49:07;;;;;;;12.00;7.28;;;;;;;11.03;65.90;96565.34;4969463;28;20066;-78
2024/02/07 03:51:35;;;;;;;11.27;6.55;;;;;;;10.93;66.12;96558.31;4973110;28;20047;-78
2024/02/07 03:54:09;;;;;;;14.90;7.57;;;;;;;11.00;66.05;96545.84;4968293;28;20077;-78
2024/02/07 03:56:35;;;;;;;14.52;7.47;;;;;;;10.74;66.54;96539.06;4961084;28;20035;-78
2024/02/07 03:59:02;;;;;;;15.57;7.40;;;;;;;10.73;67.05;96511.44;4972244;28;20110;-78
2024/02/07 04:01:28;;;;;;;11.52;6.93;;;;;;;10.96;66.21;96525.78;4953837;28;20101;-78
2024/02/07 04:03:53;;;;;;;9.98;7.15;;;;;;;10.97;66.27;96520.31;4955529;28;20485;-77
2024/02/07 04:06:19;;;;;;;10.82;6.75;;;;;;;10.84;66.47;96523.44;4967284;28;20048;-77
2024/02/07 04:08:44;;;;;;;12.07;7.30;;;;;;;10.89;66.14;96520.84;4966136;28;20481;-78
2024/02/07 05:16:17;;;;;;;12.25;7.18;;;;;;;10.89;67.30;96437.50;4971061;28;20041;-78
2024/02/07 05:18:43;;;;;;;12.57;7.78;;;;;;;11.07;66.54;96446.56;4936111;28;20031;-78
2024/02/07 05:21:12;;;;;;;11.63;6.93;;;;;;;11.14;65.92;96431.44;4964956;28;20149;-78
2024/02/07 05:23:41;;;;;;;15.27;7.50;;;;;;;11.03;67.04;96435.88;4960116;28;20038;-78
2024/02/07 05:26:10;;;;;;;11.20;7.50;;;;;;;10.94;67.61;96432.28;4968171;28;20042;-78
2024/02/07 05:28:36;;;;;;;12.48;7.95;;;;;;;10.84;67.08;96432.28;4974633;28;20042;-78
2024/02/07 05:31:02;;;;;;;9.82;7.47;;;;;;;10.95;67.56;96436.44;4971592;28;20360;-78
2024/02/07 05:33:28;;;;;;;12.05;7.00;;;;;;;10.86;67.89;96431.00;4967046;28;20042;-77
2024/02/07 05:35:53;;;;;;;11.95;8.13;;;;;;;10.82;67.34;96434.38;4963275;28;20038;-78
2024/02/07 05:38:19;;;;;;;15.48;8.55;;;;;;;11.15;66.82;96427.00;4958122;28;20038;-78
2024/02/07 05:40:44;;;;;;;13.20;7.80;;;;;;;10.85;67.63;96433.88;4971757;28;20105;-78
2024/02/07 05:43:10;;;;;;;11.35;7.80;;;;;;;10.86;67.20;96433.59;4980669;28;20042;-77
2024/02/07 05:45:35;;;;;;;13.85;6.93;;;;;;;10.72;69.17;96429.19;4966161;28;20070;-78
2024/02/07 05:48:01;;;;;;;11.88;7.32;;;;;;;10.71;68.76;96427.63;4965418;28;20061;-78
2024/02/07 05:50:27;;;;;;;12.90;7.20;;;;;;;10.90;68.94;96425.25;4955390;28;20038;-77
2024/02/07 05:52:53;;;;;;;14.63;7.63;;;;;;;10.42;70.44;96421.16;4959185;28;20062;-78
2024/02/07 05:55:18;;;;;;;15.43;8.23;;;;;;;10.73;69.48;96410.72;4956428;28;20022;-77
2024/02/07 05:57:47;;;;;;;14.57;8.75;;;;;;;10.82;69.54;96408.34;5040033;28;20061;-77
2024/02/07 06:00:14;;;;;;;11.43;7.53;;;;;;;10.94;68.71;96421.84;4981506;28;20290;-78
2024/02/07 06:02:40;;;;;;;13.60;8.00;;;;;;;11.10;68.32;96419.19;4961740;28;20376;-79
2024/02/07 06:05:06;;;;;;;16.50;8.55;;;;;;;11.02;68.66;96407.53;4954750;28;20038;-78
2024/02/07 06:07:36;;;;;;;15.25;8.32;;;;;;;10.53;70.51;96400.34;4959049;28;20513;-78
2024/02/07 06:10:01;;;;;;;14.68;8.90;;;;;;;10.76;69.69;96412.00;4979078;28;20058;-79
2024/02/07 06:12:27;;;;;;;16.38;8.82;;;;;;;10.85;69.87;96413.81;4966553;28;20116;-79
2024/02/07 06:14:55;;;;;;;14.63;8.90;;;;;;;10.99;69.31;96408.03;4933975;28;20026;-78
2024/02/07 06:17:20;;;;;;;14.45;8.50;;;;;;;10.81;69.16;96391.94;4966447;28;20078;-78
2024/02/07 06:19:46;;;;;;;13.45;7.80;;;;;;;10.81;69.45;96404.16;4945857;28;20139;-77
2024/02/07 06:22:12;;;;;;;17.73;8.40;;;;;;;10.62;70.12;96398.75;4957814;28;20057;-77
2024/02/07 06:24:37;;;;;;;11.43;7.40;;;;;;;10.76;70.28;96398.97;4968977;28;20039;-78
2024/02/07 06:27:04;;;;;;;15.77;9.02;;;;;;;10.82;69.62;96403.13;4963649;28;20038;-78
2024/02/07 06:29:29;;;;;;;13.52;8.10;;;;;;;10.76;70.09;96401.56;4973631;28;20035;-78
2024/02/07 06:31:54;;;;;;;15.43;7.95;;;;;;;10.84;70.05;96414.06;4950011;28;20491;-78
2024/02/07 06:34:21;;;;;;;12.68;7.70;;;;;;;10.97;69.23;96395.28;4953212;28;20026;-79
2024/02/07 06:36:46;;;;;;;13.65;8.23;;;;;;;11.09;68.84;96404.59;4950617;28;20069;-79
2024/02/07 06:39:11;;;;;;;13.13;8.18;;;;;;;10.96;69.52;96411.16;4955134;28;20073;-79
2024/02/07 06:41:37;;;;;;;14.45;8.43;;;;;;;10.87;68.87;96411.72;4968952;28;20038;-79
2024/02/07 06:44:02;;;;;;;11.88;7.50;;;;;;;11.03;69.42;96415.03;4962190;28;20039;-79
2024/02/07 06:46:29;;;;;;;13.07;8.10;;;;;;;10.83;69.37;96400.28;4964707;28;20043;-78
2024/02/07 06:48:55;;;;;;;14.68;7.97;;;;;;;10.90;69.61;96402.59;4961504;28;20070;-78
2024/02/07 06:51:20;;;;;;;14.20;8.05;;;;;;;11.00;69.44;96405.19;4960248;28;20065;-78
2024/02/07 06:53:45;;;;;;;13.07;7.28;;;;;;;10.73;69.90;96396.91;4969323;28;20027;-78
2024/02/07 06:56:11;;;;;;;13.15;7.25;;;;;;;10.66;71.16;96384.94;4955011;28;20576;-78
2024/02/07 06:58:36;;;;;;;14.43;7.18;;;;;;;10.94;69.38;96382.00;4973603;28;20052;-79
2024/02/07 07:01:02;;;;;;;11.20;7.43;;;;;;;11.11;69.10;96395.50;4975482;28;20031;-79
2024/02/07 07:03:27;;;;;;;11.98;6.82;;;;;;;10.95;69.14;96384.34;4964509;28;20062;-78
2024/02/07 07:05:52;;;;;;;12.85;7.43;;;;;;;10.86;69.86;96398.94;4971272;28;20040;-78
2024/02/07 07:08:18;;;;;;;12.77;7.57;;;;;;;10.73;70.30;96399.50;4965885;28;20397;-77
2024/02/07 07:10:43;;;;;;;13.32;7.78;;;;;;;10.95;69.60;96383.56;4959574;28;20266;-78
2024/02/07 07:13:09;;;;;;;13.00;6.80;;;;;;;10.94;69.21;96406.22;4939874;28;20038;-78
2024/02/07 07:15:34;;;;;;;11.63;7.82;;;;;;;11.13;69.09;96409.03;4940329;28;20023;-78
2024/02/07 07:18:00;;;;;;;13.50;7.90;;;;;;;10.99;69.81;96395.03;4966974;28;20035;-79
2024/02/07 07:20:30;;;;;;;11.07;7.00;;;;;;;10.82;69.30;96392.72;4953427;28;20502;-78
2024/02/07 07:22:56;;;;;;;13.57;7.43;;;;;;;10.54;70.40;96379.25;4964379;28;20042;-79
2024/02/07 07:25:22;;;;;;;12.45;7.15;;;;;;;10.62;70.42;96393.53;4932066;28;20296;-79
2024/02/07 07:27:47;;;;;;;12.23;7.38;;;;;;;10.60;71.18;96401.59;4948978;28;20077;-77
2024/02/07 07:30:13;;;;;;;13.68;8.18;;;;;;;10.82;70.11;96393.50;4946450;28;20491;-78
2024/02/07 07:32:38;;;;;;;11.65;7.25;;;;;;;10.77;70.71;96416.16;4968441;28;20045;-80
2024/02/07 07:35:04;;;;;;;12.57;6.85;;;;;;;10.96;69.48;96391.09;4937317;28;20113;-81
2024/02/07 07:37:29;;;;;;;10.85;7.18;;;;;;;10.90;69.73;96394.78;4940114;28;20728;-83
2024/02/07 07:39:55;;;;;;;11.57;7.53;;;;;;;10.66;70.79;96397.97;4957621;28;20034;-79
2024/02/07 07:42:21;;;;;;;11.45;6.80;;;;;;;10.77;70.05;96419.53;4975716;28;20386;-81
2024/02/07 07:44:46;;;;;;;11.15;6.78;;;;;;;10.99;69.95;96402.84;4963476;28;20117;-80
2024/02/07 07:47:11;;;;;;;11.02;6.55;;;;;;;10.54;70.98;96394.06;4965951;28;20041;-80
2024/02/07 07:49:37;;;;;;;10.63;6.13;;;;;;;10.84;71.12;96399.22;4967019;28;20514;-80
2024/02/07 07:52:02;;;;;;;11.02;6.53;;;;;;;10.66;71.07;96399.78;4968359;28;20027;-80
2024/02/07 07:54:28;;;;;;;12.10;6.28;;;;;;;10.81;70.58;96406.78;4967368;28;20019;-78
2024/02/07 07:56:53;;;;;;;14.27;6.88;;;;;;;10.61;71.96;96411.00;4966160;28;20460;-78
2024/02/07 07:59:18;;;;;;;11.90;7.25;;;;;;;10.98;70.67;96388.25;4970709;28;21313;-78
2024/02/07 08:01:44;;;;;;;12.18;6.47;;;;;;;10.84;71.01;96394.00;4956178;28;20494;-78
2024/02/07 08:04:10;;;;;;;11.88;6.88;;;;;;;10.75;70.96;96402.63;4951954;28;20389;-78
2024/02/07 08:06:35;;;;;;;10.50;6.32;;;;;;;10.90;70.76;96405.22;4938343;28;20482;-79
2024/02/07 08:09:01;;;;;;;11.85;6.85;;;;;;;11.05;70.61;96399.94;4978157;28;20035;-79
2024/02/07 08:11:26;;;;;;;13.02;7.68;;;;;;;10.87;70.27;96382.28;4941782;28;20035;-76
2024/02/07 08:13:51;;;;;;;10.32;6.65;;;;;;;10.83;71.18;96384.66;4970134;28;20030;-79
2024/02/07 08:16:17;;;;;;;14.90;6.70;;;;;;;11.08;69.91;96387.44;4965505;28;20072;-78
2024/02/07 08:18:43;;;;;;;10.48;6.40;;;;;;;11.17;70.19;96386.63;4936670;28;20502;-80
2024/02/07 08:21:09;;;;;;;12.50;6.82;;;;;;;11.22;69.90;96391.00;4969037;28;20039;-77
2024/02/07 08:23:34;;;;;;;12.00;6.57;;;;;;;11.21;69.72;96387.63;4937726;28;20109;-77
2024/02/07 08:25:59;;;;;;;12.55;6.65;;;;;;;10.89;70.65;96388.00;4961471;28;20051;-77
2024/02/07 08:28:25;;;;;;;10.48;6.97;;;;;;;10.76;71.83;96389.38;4965724;28;20505;-78
2024/02/07 08:30:50;;;;;;;12.68;7.47;;;;;;;10.84;71.07;96385.41;4945930;28;20121;-78
2024/02/07 08:33:16;;;;;;;10.50;6.82;;;;;;;11.18;70.18;96388.16;4963618;28;20173;-78
2024/02/07 08:35:41;;;;;;;10.90;6.35;;;;;;;10.85;70.65;96371.38;4961332;28;20027;-78
2024/02/07 08:38:06;;;;;;;11.13;6.47;;;;;;;11.00;71.10;96379.13;4949912;28;20022;-79
2024/02/07 08:40:32;;;;;;;11.10;6.57;;;;;;;10.77;71.23;96384.91;4946618;28;20031;-78
2024/02/07 08:42:58;;;;;;;9.48;6.00;;;;;;;11.10;70.65;96377.50;4950222;28;20027;-84
2024/02/07 08:45:24;;;;;;;10.70;6.57;;;;;;;11.00;70.94;96373.91;4958432;28;20380;-81
2024/02/07 08:47:50;;;;;;;10.90;6.68;;;;;;;11.33;69.81;96379.50;4967640;28;20041;-81
2024/02/07 08:50:16;;;;;;;12.45;6.35;;;;;;;10.88;70.70;96370.81;4962919;28;20105;-81
2024/02/07 08:52:42;;;;;;;12.23;6.28;;;;;;;11.14;70.33;96358.50;4950499;28;20038;-85
2024/02/07 08:55:09;;;;;;;10.45;6.38;;;;;;;11.24;70.51;96373.28;4955152;28;20125;-82
2024/02/07 08:57:38;;;;;;;10.13;6.22;;;;;;;11.15;70.59;96374.88;4934613;28;20517;-81
2024/02/07 09:00:04;;;;;;;13.65;6.25;;;;;;;11.04;71.42;96361.13;4964322;28;20026;-82
2024/02/07 09:02:30;;;;;;;10.70;7.35;;;;;;;11.20;70.68;96360.00;4942972;28;20104;-79
2024/02/07 09:05:04;;;;;;;10.20;6.00;;;;;;;11.10;70.13;96346.25;4961119;28;20031;-78
2024/02/07 09:07:33;;;;;;;9.77;6.22;;;;;;;11.30;70.25;96348.75;4970136;28;20043;-78
2024/02/07 09:10:00;;;;;;;10.85;6.07;;;;;;;11.15;71.09;96356.66;4934232;28;20498;-80
2024/02/07 09:12:27;;;;;;;11.63;6.38;;;;;;;11.26;70.09;96355.56;4950670;28;20037;-83
2024/02/07 09:14:55;;;;;;;10.85;5.50;;;;;;;11.37;69.91;96331.00;4945262;28;20426;-82
2024/02/07 09:17:22;;;;;;;14.13;5.90;;;;;;;11.18;70.85;96341.25;4956483;28;20551;-84
2024/02/07 09:19:47;;;;;;;9.18;5.47;;;;;;;11.08;70.51;96343.91;4952857;28;20030;-81
2024/02/07 09:22:13;;;;;;;9.70;5.38;;;;;;;11.13;70.48;96349.09;4967327;28;20556;-82
2024/02/07 09:24:40;;;;;;;9.65;6.20;;;;;;;10.86;71.96;96339.84;4943613;28;20571;-80
2024/02/07 09:27:05;;;;;;;8.20;5.35;;;;;;;11.18;70.70;96343.88;4934071;28;20108;-82
2024/02/07 09:29:30;;;;;;;8.32;5.05;;;;;;;10.98;71.14;96328.34;4951657;28;20027;-83
2024/02/07 09:31:56;;;;;;;6.68;5.00;;;;;;;11.18;70.88;96341.25;4953549;28;20046;-82
2024/02/07 09:34:21;;;;;;;7.60;5.22;;;;;;;10.85;72.06;96356.50;4950684;28;20027;-80
2024/02/07 09:36:46;;;;;;;11.35;5.45;;;;;;;11.03;70.93;96357.72;4970938;28;20058;-81
2024/02/07 09:39:12;;;;;;;9.07;5.40;;;;;;;11.15;70.79;96341.03;4950218;28;20042;-80
2024/02/07 09:41:40;;;;;;;7.03;4.38;;;;;;;10.93;71.94;96355.16;4964131;28;20117;-81
2024/02/07 09:44:08;;;;;;;7.15;4.78;;;;;;;11.21;71.25;96353.75;4949274;28;20027;-79
2024/02/07 09:46:37;;;;;;;9.52;5.20;;;;;;;11.33;70.84;96352.66;4968380;28;20033;-81
2024/02/07 09:49:05;;;;;;;6.97;4.68;;;;;;;11.27;71.00;96344.09;4952526;28;20054;-81
2024/02/07 09:51:31;;;;;;;8.50;5.05;;;;;;;11.53;69.91;96343.94;4964120;28;20041;-81
2024/02/07 09:53:57;;;;;;;7.75;4.72;;;;;;;11.32;70.88;96335.47;4965866;28;20132;-82
2024/02/07 09:56:22;;;;;;;7.25;4.70;;;;;;;11.54;70.12;96345.50;4941240;28;20058;-83
2024/02/07 09:58:48;;;;;;;9.23;4.75;;;;;;;11.23;70.94;96346.44;4944306;28;20030;-80
2024/02/07 10:01:15;;;;;;;7.05;4.32;;;;;;;11.57;69.87;96339.75;4949575;28;20035;-82
2024/02/07 10:03:42;;;;;;;8.75;5.13;;;;;;;11.60;69.69;96328.75;4952061;28;20050;-81
2024/02/07 10:06:08;;;;;;;5.95;3.95;;;;;;;11.40;70.55;96334.91;4967588;28;20034;-81
2024/02/07 10:08:34;;;;;;;10.40;4.45;;;;;;;11.47;69.85;96326.78;4943536;28;20035;-83
2024/02/07 10:11:00;;;;;;;7.63;4.50;;;;;;;11.32;70.66;96341.44;4960808;28;20508;-82
2024/02/07 10:13:26;;;;;;;6.43;3.85;;;;;;;11.43;70.95;96340.34;4965235;28;20039;-80
2024/02/07 10:15:51;;;;;;;6.70;4.40;;;;;;;11.33;71.31;96348.22;4976108;28;20030;-77
2024/02/07 10:18:17;;;;;;;6.07;4.32;;;;;;;11.14;71.11;96332.44;4949186;28;20042;-79
2024/02/07 10:20:55;;;;;;;6.93;4.70;;;;;;;11.31;70.90;96331.28;4965658;28;20039;-77
2024/02/07 10:23:23;;;;;;;6.47;4.22;;;;;;;11.52;70.54;96326.75;4965582;28;20043;-77
2024/02/07 10:25:53;;;;;;;7.10;4.30;;;;;;;11.15;71.05;96315.75;4958123;28;20126;-79
2024/02/07 10:28:19;;;;;;;6.60;4.43;;;;;;;11.31;71.14;96326.06;4952035;28;20039;-78
2024/02/07 10:31:00;;;;;;;7.18;4.10;;;;;;;11.64;70.36;96329.78;4943525;28;20043;-78
2024/02/07 10:33:36;;;;;;;5.15;3.60;;;;;;;11.56;71.15;96317.34;4984674;28;20037;-79
2024/02/07 10:36:02;;;;;;;6.00;3.88;;;;;;;11.40;70.58;96314.06;4970588;28;20057;-80
2024/02/07 10:38:28;;;;;;;6.35;3.92;;;;;;;11.39;70.97;96308.03;4956640;28;20298;-79
2024/02/07 10:40:54;;;;;;;5.97;4.13;;;;;;;11.45;70.95;96314.03;4966791;28;20042;-77
2024/02/07 10:43:24;;;;;;;6.68;4.13;;;;;;;11.55;70.56;96300.13;4947754;28;20038;-79
2024/02/07 10:46:18;;;;;;;6.82;4.05;;;;;;;11.63;70.79;96307.38;4952423;28;20072;-79
2024/02/07 10:48:43;;;;;;;9.15;4.55;;;;;;;11.55;70.72;96300.13;4949467;28;20038;-80
2024/02/07 10:51:09;;;;;;;6.72;3.83;;;;;;;11.55;71.55;96305.34;4948122;28;20041;-79
2024/02/07 10:53:35;;;;;;;6.32;3.35;;;;;;;11.39;71.73;96292.41;4964359;28;20074;-78
2024/02/07 10:56:02;;;;;;;4.20;3.17;;;;;;;11.81;70.89;96303.34;4947017;28;20077;-79
2024/02/07 10:58:29;;;;;;;6.72;3.65;;;;;;;11.56;70.60;96296.47;4963601;28;20038;-79
2024/02/07 11:00:56;;;;;;;5.22;3.83;;;;;;;11.80;70.33;96289.50;4947310;28;20039;-78
2024/02/07 11:03:26;;;;;;;6.22;3.90;;;;;;;11.70;69.89;96281.75;4933130;28;20041;-79
2024/02/07 11:05:51;;;;;;;5.68;3.50;;;;;;;11.40;71.11;96288.75;4959820;28;20027;-79
2024/02/07 11:08:17;;;;;;;5.03;3.60;;;;;;;11.15;71.56;96281.09;4971209;28;20049;-79
2024/02/07 11:10:43;;;;;;;5.40;3.42;;;;;;;11.34;71.29;96274.19;4968149;28;20088;-79
2024/02/07 11:13:10;;;;;;;4.63;3.67;;;;;;;11.48;70.72;96284.00;4951082;28;20039;-77
2024/02/07 11:15:36;;;;;;;4.68;3.47;;;;;;;11.72;70.26;96273.66;4969479;28;20030;-78
2024/02/07 11:18:01;;;;;;;6.80;3.85;;;;;;;11.62;69.97;96262.28;4961249;28;20069;-77
2024/02/07 11:20:28;;;;;;;4.78;3.30;;;;;;;11.69;70.21;96255.97;4974115;28;20092;-80
2024/02/07 11:22:55;;;;;;;5.30;3.40;;;;;;;11.41;71.26;96258.25;4947387;28;20043;-79
2024/02/07 11:25:22;;;;;;;6.38;3.20;;;;;;;11.39;71.63;96248.09;4980449;28;20070;-79
2024/02/07 11:27:50;;;;;;;4.22;3.03;;;;;;;11.16;72.05;96230.56;4963317;28;20046;-78
2024/02/07 11:30:17;;;;;;;4.57;3.15;;;;;;;11.09;72.11;96240.47;4951041;28;20498;-79
2024/02/07 11:32:46;;;;;;;5.55;3.85;;;;;;;11.16;72.36;96246.19;4955637;28;20125;-78
2024/02/07 11:35:12;;;;;;;5.53;3.55;;;;;;;11.04;72.69;96228.28;4973608;28;20035;-79
2024/02/07 11:37:38;;;;;;;5.88;3.30;;;;;;;11.53;71.13;96234.44;4951158;28;20034;-79
2024/02/07 11:40:05;;;;;;;5.03;3.53;;;;;;;11.43;70.47;96217.84;4966594;28;20049;-79
2024/02/07 11:42:37;;;;;;;4.22;3.30;;;;;;;11.66;69.91;96233.81;4970154;28;20514;-79
2024/02/07 11:45:03;;;;;;;6.63;3.28;;;;;;;11.52;70.28;96233.69;4957241;28;20044;-78
2024/02/07 11:47:30;;;;;;;4.70;3.13;;;;;;;11.38;70.79;96228.31;4967490;28;20050;-78
2024/02/07 11:49:57;;;;;;;5.55;3.80;;;;;;;11.49;70.78;96239.44;4960508;28;20519;-80
2024/02/07 11:52:33;;;;;;;5.00;3.50;;;;;;;11.51;70.63;96220.91;4958459;28;20034;-78
2024/02/07 11:55:14;;;;;;;5.47;3.63;;;;;;;11.39;71.30;96218.66;4976306;28;20573;-79
2024/02/07 11:57:48;;;;;;;5.68;3.95;;;;;;;11.51;70.54;96211.25;4961041;28;20097;-80
2024/02/07 12:00:18;;;;;;;5.57;3.97;;;;;;;11.38;71.65;96227.53;4970867;28;20024;-77
2024/02/07 12:02:47;;;;;;;4.25;2.97;;;;;;;11.48;70.96;96216.25;4964214;28;20066;-79
2024/02/07 12:05:13;;;;;;;4.50;3.50;;;;;;;11.61;70.68;96221.59;4974303;28;20072;-78
2024/02/07 12:07:40;;;;;;;6.03;3.40;;;;;;;11.35;70.83;96225.47;4964110;28;20035;-77
2024/02/07 12:10:08;;;;;;;6.00;4.15;;;;;;;11.34;71.42;96209.03;4952714;28;20495;-78
2024/02/07 12:12:33;;;;;;;6.07;3.28;;;;;;;11.59;70.01;96217.72;4962164;28;20038;-85
2024/02/07 12:14:58;;;;;;;8.35;3.90;;;;;;;11.39;71.09;96209.00;4958180;28;20514;-82
2024/02/07 12:17:24;;;;;;;6.22;3.95;;;;;;;11.42;71.83;96216.28;4961936;28;20043;-81
2024/02/07 12:19:49;;;;;;;5.85;4.22;;;;;;;11.57;70.01;96206.78;4976210;28;20023;-84
2024/02/07 12:22:16;;;;;;;5.63;4.18;;;;;;;11.36;71.47;96212.19;4946560;28;20042;-81
2024/02/07 12:24:43;;;;;;;5.95;4.00;;;;;;;11.58;70.94;96210.94;4947228;28;20445;-82
2024/02/07 12:27:13;;;;;;;6.95;4.57;;;;;;;11.43;71.03;96201.44;4959771;28;20474;-83
2024/02/07 12:29:52;;;;;;;5.10;3.90;;;;;;;11.57;70.50;96197.13;4937987;28;20470;-81
2024/02/07 12:32:17;;;;;;;6.40;3.90;;;;;;;11.60;70.59;96183.56;4951780;28;20049;-79